createdAt,value
2023-05-19T00:00:37.178Z,100.00
2023-05-19T00:05:35.372Z,100.00
2023-05-19T00:10:33.030Z,100.00
2023-05-19T00:15:30.397Z,100.00
2023-05-19T00:20:26.790Z,100.00
2023-05-19T00:25:23.219Z,100.00
2023-05-19T00:30:19.686Z,100.00
2023-05-19T00:35:16.762Z,100.00
2023-05-19T00:40:13.586Z,100.00
2023-05-19T00:45:10.627Z,100.00
2023-05-19T00:50:07.336Z,100.00
2023-05-19T00:55:04.176Z,100.00
2023-05-19T01:00:01.001Z,100.00
2023-05-19T01:04:57.457Z,100.00
2023-05-19T01:09:54.052Z,100.00
2023-05-19T01:14:50.864Z,100.00
2023-05-19T01:20:13.576Z,100.00
2023-05-19T01:25:32.942Z,100.00
2023-05-19T01:30:32.499Z,100.00
2023-05-19T01:35:30.619Z,100.00
2023-05-19T01:40:28.815Z,100.00
2023-05-19T01:45:27.821Z,100.00
2023-05-19T01:50:24.542Z,100.00
2023-05-19T01:55:23.313Z,100.00
2023-05-19T02:00:40.129Z,100.00
2023-05-19T02:05:58.757Z,100.00
2023-05-19T02:11:02.603Z,100.00
2023-05-19T02:16:04.504Z,100.00
2023-05-19T02:21:01.841Z,100.00
2023-05-19T02:25:58.246Z,100.00
2023-05-19T02:30:54.688Z,100.00
2023-05-19T02:35:51.128Z,100.00
2023-05-19T02:40:47.832Z,100.00
2023-05-19T02:45:44.234Z,100.00
2023-05-19T02:50:40.699Z,100.00
2023-05-19T02:55:37.430Z,100.00
2023-05-19T03:00:33.991Z,100.00
2023-05-19T03:05:31.129Z,100.00
2023-05-19T03:10:27.926Z,100.00
2023-05-19T03:15:24.434Z,100.00
2023-05-19T03:20:20.846Z,100.00
2023-05-19T03:25:17.583Z,100.00
2023-05-19T03:30:14.660Z,100.00
2023-05-19T03:35:11.166Z,100.00
2023-05-19T03:40:08.551Z,100.00
2023-05-19T03:45:05.380Z,100.00
2023-05-19T03:50:02.246Z,100.00
2023-05-19T03:54:58.707Z,100.00
2023-05-19T03:59:55.112Z,100.00
2023-05-19T04:04:51.624Z,100.00
2023-05-19T04:09:48.623Z,100.00
2023-05-19T04:14:45.130Z,100.00
2023-05-19T04:19:41.641Z,100.00
2023-05-19T04:24:38.025Z,100.00
2023-05-19T04:29:35.641Z,100.00
2023-05-19T04:34:32.144Z,100.00
2023-05-19T04:39:28.534Z,100.00
2023-05-19T04:44:24.971Z,100.00
2023-05-19T04:49:21.365Z,100.00
2023-05-19T04:54:17.784Z,100.00
2023-05-19T04:59:14.235Z,100.00
2023-05-19T05:04:10.684Z,100.00
2023-05-19T05:09:07.788Z,100.00
2023-05-19T05:14:04.382Z,100.00
2023-05-19T05:19:01.816Z,100.00
2023-05-19T05:23:58.585Z,100.00
2023-05-19T05:28:55.066Z,100.00
2023-05-19T05:33:51.630Z,100.00
2023-05-19T05:38:48.062Z,100.00
2023-05-19T05:43:44.493Z,100.00
2023-05-19T05:48:42.699Z,100.00
2023-05-19T05:53:44.594Z,100.00
2023-05-19T05:58:41.179Z,100.00
2023-05-19T06:03:42.808Z,100.00
2023-05-19T06:08:39.281Z,100.00
2023-05-19T06:13:36.625Z,100.00
2023-05-19T06:18:33.218Z,100.00
2023-05-19T06:23:30.630Z,100.00
2023-05-19T06:28:27.129Z,100.00
2023-05-19T06:33:23.968Z,100.00
2023-05-19T06:38:21.481Z,100.00
2023-05-19T06:43:17.971Z,100.00
2023-05-19T06:48:14.403Z,100.00
2023-05-19T06:53:11.070Z,100.00
2023-05-19T06:58:07.979Z,100.00
2023-05-19T07:03:04.536Z,100.00
2023-05-19T07:08:01.701Z,100.00
2023-05-19T07:12:58.566Z,99.63
2023-05-19T07:17:54.956Z,95.52
2023-05-19T07:22:51.347Z,91.53
2023-05-19T07:27:47.788Z,86.87
2023-05-19T07:32:44.238Z,89.19
2023-05-19T07:37:40.624Z,89.53
2023-05-19T07:42:37.144Z,83.48
2023-05-19T07:47:33.606Z,81.76
2023-05-19T07:52:30.027Z,81.60
2023-05-19T07:57:26.405Z,77.20
2023-05-19T08:02:22.871Z,83.67
2023-05-19T08:07:19.269Z,76.17
2023-05-19T08:12:15.663Z,71.43
2023-05-19T08:17:12.192Z,72.29
2023-05-19T08:22:08.914Z,71.62
2023-05-19T08:27:05.674Z,64.99
2023-05-19T08:32:02.746Z,64.99
2023-05-19T08:36:59.746Z,66.09
2023-05-19T08:41:56.242Z,66.71
2023-05-19T08:46:55.201Z,64.32
2023-05-19T08:52:05.399Z,59.58
2023-05-19T08:57:02.231Z,56.33
2023-05-19T09:01:59.138Z,58.93
2023-05-19T09:06:55.510Z,64.12
2023-05-19T09:11:51.907Z,54.28
2023-05-19T09:16:51.055Z,55.75
2023-05-19T09:22:00.111Z,54.64
2023-05-19T09:26:58.506Z,56.92
2023-05-19T09:32:00.902Z,56.55
2023-05-19T09:36:59.799Z,52.63
2023-05-19T09:41:58.392Z,53.56
2023-05-19T09:46:55.328Z,54.47
2023-05-19T09:51:55.125Z,55.01
2023-05-19T09:57:04.846Z,51.90
2023-05-19T10:02:02.556Z,51.49
2023-05-19T10:06:59.832Z,53.46
2023-05-19T10:11:58.112Z,49.59
2023-05-19T10:16:57.011Z,47.03
2023-05-19T10:21:54.004Z,48.94
2023-05-19T10:27:00.943Z,48.91
2023-05-19T10:32:02.530Z,47.57
2023-05-19T10:37:37.687Z,46.04
2023-05-19T10:42:43.301Z,47.66
2023-05-19T10:47:43.455Z,46.31
2023-05-19T10:52:40.499Z,45.54
2023-05-19T10:57:37.084Z,46.54
2023-05-19T11:02:56.173Z,45.42
2023-05-19T11:08:07.753Z,44.97
2023-05-19T11:13:06.613Z,45.21
2023-05-19T11:18:04.664Z,46.28
2023-05-19T11:23:15.254Z,46.21
2023-05-19T11:28:13.249Z,46.71
2023-05-19T11:33:10.614Z,47.42
2023-05-19T11:38:07.596Z,47.32
2023-05-19T11:43:04.208Z,44.96
2023-05-19T11:48:03.408Z,46.47
2023-05-19T11:53:01.666Z,49.50
2023-05-19T12:02:58.832Z,46.18
2023-05-19T12:07:55.644Z,45.68
2023-05-19T12:12:53.294Z,48.16
2023-05-19T12:17:51.159Z,47.98
2023-05-19T12:22:48.085Z,46.48
2023-05-19T12:27:44.916Z,44.33
2023-05-19T12:32:42.593Z,45.23
2023-05-19T12:37:41.757Z,44.88
2023-05-19T12:42:38.219Z,45.61
2023-05-19T12:47:35.891Z,46.13
2023-05-19T12:52:35.316Z,45.56
2023-05-19T12:57:35.486Z,45.14
2023-05-19T13:02:34.207Z,42.82
2023-05-19T13:07:30.761Z,48.41
2023-05-19T13:12:27.539Z,45.14
2023-05-19T13:17:24.602Z,45.46
2023-05-19T13:22:20.968Z,45.90
2023-05-19T13:27:17.306Z,46.27
2023-05-19T13:32:13.648Z,42.93
2023-05-19T13:37:11.421Z,44.77
2023-05-19T13:42:07.982Z,45.63
2023-05-19T13:47:04.693Z,44.40
2023-05-19T13:52:01.108Z,44.86
2023-05-19T13:56:57.470Z,43.31
2023-05-19T14:01:54.016Z,45.85
2023-05-19T14:06:50.535Z,47.42
2023-05-19T14:11:47.797Z,44.39
2023-05-19T14:16:44.214Z,45.52
2023-05-19T14:21:40.924Z,46.78
2023-05-19T14:26:37.303Z,45.34
2023-05-19T14:31:33.678Z,42.61
2023-05-19T14:36:30.055Z,42.20
2023-05-19T14:41:26.680Z,42.27
2023-05-19T14:46:23.125Z,40.83
2023-05-19T14:51:19.698Z,43.07
2023-05-19T14:56:16.097Z,42.43
2023-05-19T15:01:12.549Z,42.16
2023-05-19T15:06:10.604Z,41.31
2023-05-19T15:11:07.413Z,40.11
2023-05-19T15:16:16.189Z,39.44
2023-05-19T15:21:13.615Z,39.73
2023-05-19T15:26:09.982Z,42.29
2023-05-19T15:31:06.419Z,44.03
2023-05-19T15:36:02.859Z,45.36
2023-05-19T15:40:59.244Z,42.46
2023-05-19T15:45:56.122Z,43.83
2023-05-19T15:50:52.497Z,40.30
2023-05-19T15:55:48.816Z,42.27
2023-05-19T16:00:45.321Z,44.72
2023-05-19T16:05:41.688Z,46.07
2023-05-19T16:10:38.169Z,45.58
2023-05-19T16:15:34.501Z,42.02
2023-05-19T16:20:31.125Z,40.65
2023-05-19T16:25:27.557Z,40.09
2023-05-19T16:30:26.201Z,39.64
2023-05-19T16:35:23.353Z,38.53
2023-05-19T16:40:19.961Z,39.30
2023-05-19T16:45:17.457Z,40.99
2023-05-19T16:50:13.950Z,42.75
2023-05-19T16:55:11.050Z,41.39
2023-05-19T17:00:08.205Z,34.37
2023-05-19T17:05:04.633Z,32.49
2023-05-19T17:10:00.957Z,29.46
2023-05-19T17:14:57.387Z,30.18
2023-05-19T17:19:53.767Z,29.74
2023-05-19T17:24:50.090Z,28.43
2023-05-19T17:29:46.411Z,28.51
2023-05-19T17:34:42.770Z,27.81
2023-05-19T17:39:39.203Z,31.33
2023-05-19T17:44:35.577Z,36.94
2023-05-19T17:49:31.935Z,40.73
2023-05-19T17:54:28.867Z,43.71
2023-05-19T17:59:25.560Z,46.25
2023-05-19T18:04:22.345Z,47.58
2023-05-19T18:09:19.740Z,49.06
2023-05-19T18:14:16.057Z,44.72
2023-05-19T18:19:12.488Z,39.81
2023-05-19T18:24:08.871Z,38.86
2023-05-19T18:29:05.601Z,41.99
2023-05-19T18:34:03.269Z,42.74
2023-05-19T18:39:00.046Z,43.75
2023-05-19T18:43:56.533Z,45.85
2023-05-19T18:48:52.976Z,46.52
2023-05-19T18:53:50.112Z,48.71
2023-05-19T18:58:46.455Z,50.48
2023-05-19T19:03:43.656Z,51.21
2023-05-19T19:08:40.018Z,54.91
2023-05-19T19:13:39.568Z,55.91
2023-05-19T19:18:36.518Z,57.47
2023-05-19T19:23:33.119Z,61.37
2023-05-19T19:28:29.696Z,62.22
2023-05-19T19:33:26.068Z,64.34
2023-05-19T19:38:22.431Z,65.56
2023-05-19T19:43:19.052Z,65.88
2023-05-19T19:48:15.403Z,68.61
2023-05-19T19:53:11.720Z,73.12
2023-05-19T19:58:08.058Z,75.41
2023-05-19T20:03:05.764Z,79.17
2023-05-19T20:08:02.525Z,81.17
2023-05-19T20:12:59.411Z,84.31
2023-05-19T20:17:55.963Z,87.16
2023-05-19T20:22:52.322Z,93.01
2023-05-19T20:27:48.693Z,98.43
2023-05-19T20:32:46.530Z,99.13
2023-05-19T20:37:42.977Z,100.00
2023-05-19T20:42:39.746Z,100.00
2023-05-19T20:47:36.387Z,100.00
2023-05-19T20:52:32.953Z,100.00
2023-05-19T20:57:29.321Z,100.00
2023-05-19T21:02:25.826Z,100.00
2023-05-19T21:07:22.289Z,100.00
2023-05-19T21:12:20.571Z,100.00
2023-05-19T21:17:19.257Z,100.00
2023-05-19T21:22:15.649Z,100.00
2023-05-19T21:27:12.130Z,100.00
2023-05-19T21:32:08.591Z,100.00
2023-05-19T21:37:05.453Z,100.00
2023-05-19T21:42:02.350Z,100.00
2023-05-19T21:46:58.913Z,100.00
2023-05-19T21:51:55.626Z,100.00
2023-05-19T21:56:52.019Z,100.00
2023-05-19T22:01:48.896Z,100.00
2023-05-19T22:06:45.507Z,100.00
2023-05-19T22:11:42.048Z,100.00
2023-05-19T22:16:38.575Z,100.00
2023-05-19T22:21:34.996Z,100.00
2023-05-19T22:26:31.413Z,100.00
2023-05-19T22:31:29.417Z,100.00
2023-05-19T22:36:26.030Z,100.00
2023-05-19T22:41:22.630Z,100.00
2023-05-19T22:46:19.152Z,100.00
2023-05-19T22:51:15.704Z,100.00
2023-05-19T22:56:12.542Z,100.00
2023-05-19T23:01:08.974Z,100.00
2023-05-19T23:06:05.568Z,100.00
2023-05-19T23:11:02.471Z,100.00
2023-05-19T23:15:58.948Z,100.00
2023-05-19T23:20:55.391Z,100.00
2023-05-19T23:25:51.741Z,100.00
2023-05-19T23:30:48.110Z,100.00
2023-05-19T23:35:46.264Z,100.00
2023-05-19T23:40:43.344Z,100.00
2023-05-19T23:45:39.720Z,100.00
2023-05-19T23:50:36.129Z,100.00
2023-05-19T23:55:32.666Z,100.00
